Time;durP1;ratioP1;P1;durP2;ratioP2;P2;SDS_P1;SDS_P2;PMS_P1;PMS_P2;Temp;Humidity;BMP_temperature;BMP_pressure;BME280_temperature;BME280_humidity;BME280_pressure;Samples;Min_cycle;Max_cycle;Signal;HPM_P1;HPM_P2
2024/01/01 00:02:19;;;;;;;27.23;22.50;;;7.40;99.90;;;;;;4932247;29;20130;-78
2024/01/01 00:04:45;;;;;;;27.23;23.10;;;7.50;99.90;;;;;;4934150;29;20082;-78
2024/01/01 00:07:11;;;;;;;26.17;21.40;;;7.50;99.90;;;;;;4918414;29;20518;-78
2024/01/01 00:09:36;;;;;;;28.52;23.17;;;7.50;99.90;;;;;;4898928;29;20060;-77
2024/01/01 00:12:02;;;;;;;28.30;23.92;;;7.50;99.90;;;;;;4916117;29;20052;-77
2024/01/01 00:14:28;;;;;;;34.22;26.67;;;7.50;99.90;;;;;;4896017;29;20510;-78
2024/01/01 00:16:53;;;;;;;28.52;24.20;;;7.60;99.90;;;;;;4909151;29;20040;-77
2024/01/01 00:19:19;;;;;;;28.40;23.65;;;7.60;99.90;;;;;;4915978;29;20053;-77
2024/01/01 00:21:45;;;;;;;26.38;22.40;;;7.60;99.90;;;;;;4913756;29;20052;-77
2024/01/01 00:24:10;;;;;;;29.05;24.33;;;7.60;99.90;;;;;;4913213;29;20391;-77
2024/01/01 00:26:36;;;;;;;31.92;28.38;;;7.60;99.90;;;;;;4913390;29;20122;-77
2024/01/01 00:29:03;;;;;;;38.78;32.83;;;7.60;99.90;;;;;;4904100;29;20048;-77
2024/01/01 00:31:30;;;;;;;41.15;36.65;;;7.60;99.90;;;;;;4901822;29;20040;-77
2024/01/01 00:33:56;;;;;;;46.97;41.85;;;7.60;99.90;;;;;;4900282;29;20036;-77
2024/01/01 00:36:21;;;;;;;49.30;44.50;;;7.60;99.90;;;;;;4898680;29;20112;-77
2024/01/01 00:38:47;;;;;;;44.47;40.03;;;7.60;99.90;;;;;;4899799;29;20562;-77
2024/01/01 00:41:16;;;;;;;41.35;37.13;;;7.60;99.90;;;;;;4915558;29;20514;-77
2024/01/01 00:43:43;;;;;;;41.78;37.47;;;7.60;99.90;;;;;;4905738;29;20051;-77
2024/01/01 00:46:09;;;;;;;43.15;38.72;;;7.60;99.90;;;;;;4915388;29;20096;-77
2024/01/01 00:48:34;;;;;;;37.28;33.30;;;7.60;99.90;;;;;;4913168;29;20495;-77
2024/01/01 00:51:00;;;;;;;36.25;32.40;;;7.60;99.90;;;;;;4914148;29;20036;-77
2024/01/01 00:53:25;;;;;;;36.90;32.95;;;7.70;99.90;;;;;;4909511;29;20392;-77
2024/01/01 00:55:51;;;;;;;40.85;36.10;;;7.60;99.90;;;;;;4896425;29;20095;-77
2024/01/01 00:58:16;;;;;;;45.40;40.70;;;7.70;99.90;;;;;;4880502;29;20443;-78
2024/01/01 01:00:42;;;;;;;43.97;39.28;;;7.70;99.90;;;;;;4898086;29;20054;-77
2024/01/01 01:03:08;;;;;;;45.03;40.40;;;7.70;99.90;;;;;;4911448;29;20407;-77
2024/01/01 01:05:33;;;;;;;45.65;41.10;;;7.60;99.90;;;;;;4915413;29;20040;-77
2024/01/01 01:07:59;;;;;;;42.35;37.97;;;7.60;99.90;;;;;;4895985;29;20040;-77
2024/01/01 01:10:24;;;;;;;40.00;35.80;;;7.60;99.90;;;;;;4910959;29;20186;-77
2024/01/01 01:12:53;;;;;;;38.95;34.85;;;7.50;99.90;;;;;;4899264;29;20040;-77
2024/01/01 01:15:19;;;;;;;40.67;36.38;;;7.50;99.90;;;;;;4914184;29;20048;-77
2024/01/01 01:17:45;;;;;;;36.90;32.95;;;7.50;99.90;;;;;;4909333;29;20135;-77
2024/01/01 01:20:11;;;;;;;38.97;34.85;;;7.50;99.90;;;;;;4915102;29;20131;-77
2024/01/01 01:22:37;;;;;;;40.20;35.92;;;7.60;99.90;;;;;;4910809;29;20555;-77
2024/01/01 01:25:03;;;;;;;39.78;35.50;;;7.60;99.90;;;;;;4914576;29;20130;-77
2024/01/01 01:27:28;;;;;;;43.63;39.28;;;7.60;99.90;;;;;;4913239;29;20134;-77
2024/01/01 01:29:54;;;;;;;40.60;36.53;;;7.60;99.90;;;;;;4892630;29;20043;-77
2024/01/01 01:32:19;;;;;;;42.47;38.17;;;7.60;99.90;;;;;;4914664;29;20032;-77
2024/01/01 01:34:45;;;;;;;41.55;37.45;;;7.60;99.90;;;;;;4914787;29;20044;-77
2024/01/01 01:37:11;;;;;;;44.90;40.40;;;7.50;99.90;;;;;;4914557;29;20072;-77
2024/01/01 01:39:36;;;;;;;43.25;39.03;;;7.50;99.90;;;;;;4913399;29;20143;-77
2024/01/01 01:42:02;;;;;;;38.63;34.53;;;7.50;99.90;;;;;;4918389;29;20122;-77
2024/01/01 01:44:29;;;;;;;44.92;40.70;;;7.50;99.90;;;;;;4933242;29;20130;-77
2024/01/01 01:46:55;;;;;;;36.55;32.80;;;7.50;99.90;;;;;;4933695;29;20533;-77
2024/01/01 01:49:20;;;;;;;40.30;36.22;;;7.60;99.90;;;;;;4917576;29;20043;-77
2024/01/01 01:51:48;;;;;;;28.65;25.58;;;7.50;99.90;;;;;;4928383;29;20040;-77
2024/01/01 01:54:14;;;;;;;27.50;24.73;;;7.50;99.90;;;;;;4898464;29;20406;-77
2024/01/01 01:56:40;;;;;;;26.77;23.98;;;7.50;99.90;;;;;;4898598;29;20131;-77
2024/01/01 01:59:06;;;;;;;28.48;25.67;;;7.50;99.90;;;;;;4916341;29;20451;-77
2024/01/01 02:01:32;;;;;;;26.95;24.10;;;7.50;99.90;;;;;;4897447;29;20091;-77
2024/01/01 02:03:58;;;;;;;24.02;21.50;;;7.50;99.90;;;;;;4913956;29;20036;-77
2024/01/01 02:06:24;;;;;;;25.58;21.02;;;7.50;99.90;;;;;;4914256;29;20040;-77
2024/01/01 02:08:50;;;;;;;21.35;19.10;;;7.50;99.90;;;;;;4914336;29;20055;-77
2024/01/01 02:11:15;;;;;;;21.42;19.13;;;7.50;99.90;;;;;;4902747;29;20495;-77
2024/01/01 02:13:41;;;;;;;21.10;18.88;;;7.50;99.90;;;;;;4915978;29;20502;-77
2024/01/01 02:16:06;;;;;;;21.35;17.95;;;7.50;99.90;;;;;;4897715;29;20065;-77
2024/01/01 02:18:32;;;;;;;21.40;17.98;;;7.50;99.90;;;;;;4912173;29;20032;-77
2024/01/01 02:20:57;;;;;;;22.58;17.65;;;7.40;99.90;;;;;;4932691;29;20044;-77
2024/01/01 02:23:24;;;;;;;21.20;18.08;;;7.40;99.90;;;;;;4929005;29;20570;-77
2024/01/01 02:25:50;;;;;;;23.42;17.55;;;7.30;99.90;;;;;;4898341;29;20044;-77
2024/01/01 02:28:16;;;;;;;23.83;18.35;;;7.30;99.90;;;;;;4914381;29;20044;-77
2024/01/01 02:30:42;;;;;;;23.35;18.90;;;7.20;99.90;;;;;;4914134;29;20048;-77
2024/01/01 02:33:11;;;;;;;20.60;16.85;;;7.20;99.90;;;;;;4913696;29;20036;-77
2024/01/01 02:35:37;;;;;;;21.42;16.17;;;7.10;99.90;;;;;;4916135;29;20098;-77
2024/01/01 02:38:04;;;;;;;23.95;16.77;;;7.00;99.90;;;;;;4933064;29;20050;-76
2024/01/01 02:40:34;;;;;;;21.10;16.15;;;7.00;99.90;;;;;;4915515;29;20462;-76
2024/01/01 02:43:01;;;;;;;21.88;16.23;;;6.90;99.90;;;;;;4897993;29;20436;-76
2024/01/01 02:45:28;;;;;;;18.45;13.95;;;6.90;99.90;;;;;;4911967;29;20091;-77
2024/01/01 02:47:54;;;;;;;16.20;14.30;;;6.90;99.90;;;;;;4914878;29;20047;-77
2024/01/01 02:50:21;;;;;;;18.60;13.50;;;6.90;99.90;;;;;;4914103;29;20048;-77
2024/01/01 02:52:47;;;;;;;15.98;11.93;;;6.90;99.90;;;;;;4914121;29;20073;-77
2024/01/01 02:55:13;;;;;;;18.83;12.85;;;6.90;99.90;;;;;;4911984;29;20071;-77
2024/01/01 02:57:38;;;;;;;19.00;12.75;;;6.90;99.90;;;;;;4914725;29;20068;-77
2024/01/01 03:00:04;;;;;;;21.92;11.85;;;6.90;99.90;;;;;;4898124;29;20036;-77
2024/01/01 03:02:30;;;;;;;18.88;11.90;;;6.80;99.90;;;;;;4901784;29;20032;-77
2024/01/01 03:04:55;;;;;;;18.60;10.52;;;6.80;99.90;;;;;;4932633;29;20040;-77
2024/01/01 03:07:21;;;;;;;19.23;10.73;;;6.70;99.90;;;;;;4916957;29;20050;-77
2024/01/01 03:09:49;;;;;;;16.40;10.13;;;6.60;99.90;;;;;;4911801;29;20127;-76
2024/01/01 03:12:15;;;;;;;16.55;9.20;;;6.60;99.90;;;;;;4897971;29;20179;-76
2024/01/01 03:14:42;;;;;;;15.73;9.18;;;6.50;99.90;;;;;;4915679;29;20131;-76
2024/01/01 03:17:08;;;;;;;17.83;8.90;;;6.50;99.90;;;;;;4902356;29;20124;-77
2024/01/01 03:19:33;;;;;;;15.23;8.52;;;6.50;99.90;;;;;;4913495;29;20122;-76
2024/01/01 03:21:59;;;;;;;15.90;8.77;;;6.50;99.90;;;;;;4905959;29;20047;-77
2024/01/01 03:24:25;;;;;;;16.80;8.50;;;6.40;99.90;;;;;;4900599;29;20044;-77
2024/01/01 03:26:51;;;;;;;15.23;8.23;;;6.40;99.90;;;;;;4926362;29;20048;-77
2024/01/01 03:29:16;;;;;;;14.60;6.78;;;6.40;99.90;;;;;;4934179;29;20066;-77
2024/01/01 03:31:45;;;;;;;14.30;7.10;;;6.40;99.90;;;;;;4935721;29;20044;-77
2024/01/01 03:34:11;;;;;;;13.75;5.95;;;6.40;99.90;;;;;;4933543;29;20360;-77
2024/01/01 03:36:36;;;;;;;14.55;6.55;;;6.40;99.90;;;;;;4914094;29;20131;-77
2024/01/01 03:39:02;;;;;;;12.30;6.20;;;6.40;99.90;;;;;;4913436;29;20033;-77
2024/01/01 03:41:27;;;;;;;11.77;5.38;;;6.40;99.90;;;;;;4913297;29;20414;-77
2024/01/01 03:43:53;;;;;;;14.00;6.50;;;6.40;99.90;;;;;;4916234;29;20093;-77
2024/01/01 03:46:18;;;;;;;13.70;5.93;;;6.30;99.90;;;;;;4916665;29;20570;-77
2024/01/01 03:48:44;;;;;;;11.65;5.20;;;6.30;99.90;;;;;;4913422;29;20050;-77
2024/01/01 03:51:10;;;;;;;12.30;4.63;;;6.30;99.90;;;;;;4910207;29;20032;-77
2024/01/01 03:53:36;;;;;;;12.13;4.82;;;6.30;99.90;;;;;;4913660;29;20044;-77
2024/01/01 03:56:01;;;;;;;13.75;5.20;;;6.30;99.90;;;;;;4906791;29;20040;-77
2024/01/01 03:58:27;;;;;;;10.10;5.68;;;6.30;99.90;;;;;;4935337;29;20054;-77
2024/01/01 04:00:52;;;;;;;10.90;4.88;;;6.30;99.90;;;;;;4935579;29;20071;-77
2024/01/01 04:03:18;;;;;;;10.82;5.10;;;6.30;99.90;;;;;;4915118;29;20044;-77
2024/01/01 04:05:43;;;;;;;14.93;6.40;;;6.40;99.90;;;;;;4900572;29;20091;-77
2024/01/01 04:08:09;;;;;;;11.05;5.60;;;6.40;99.90;;;;;;4921959;29;20035;-77
2024/01/01 04:10:34;;;;;;;12.15;5.72;;;6.40;99.90;;;;;;4935337;29;20502;-77
2024/01/01 04:13:00;;;;;;;10.52;5.00;;;6.40;99.90;;;;;;4933145;29;20035;-77
2024/01/01 04:15:25;;;;;;;12.50;5.45;;;6.40;99.90;;;;;;4900600;29;20043;-77
2024/01/01 04:17:51;;;;;;;12.68;5.95;;;6.40;99.90;;;;;;4922178;29;20091;-77
2024/01/01 04:20:16;;;;;;;11.48;5.20;;;6.30;99.90;;;;;;4919370;29;20049;-77
2024/01/01 04:22:42;;;;;;;12.80;5.18;;;6.40;99.90;;;;;;4932264;29;20032;-77
2024/01/01 04:25:08;;;;;;;14.25;5.82;;;6.30;99.90;;;;;;4899272;29;20075;-77
2024/01/01 04:27:35;;;;;;;22.10;6.90;;;6.30;99.90;;;;;;4913725;29;20040;-77
2024/01/01 04:30:00;;;;;;;19.35;6.50;;;6.40;99.90;;;;;;4940357;23;20066;-75
2024/01/01 04:32:26;;;;;;;14.80;5.25;;;6.40;99.90;;;;;;4905614;29;20118;-76
2024/01/01 04:34:55;;;;;;;15.88;6.10;;;6.40;99.90;;;;;;4881352;29;20037;-75
2024/01/01 04:37:26;;;;;;;18.00;6.50;;;6.40;99.90;;;;;;4884627;29;20044;-75
2024/01/01 04:39:57;;;;;;;17.85;6.93;;;6.40;99.90;;;;;;4897186;29;20041;-75
2024/01/01 04:42:25;;;;;;;18.40;6.35;;;6.40;99.90;;;;;;4906414;29;20044;-75
2024/01/01 04:44:52;;;;;;;20.27;6.00;;;6.40;99.90;;;;;;4876405;29;20159;-75
2024/01/01 04:47:18;;;;;;;18.90;7.00;;;6.40;99.90;;;;;;4878021;29;20045;-75
2024/01/01 04:49:51;;;;;;;24.25;7.80;;;6.40;99.90;;;;;;4878064;29;20059;-75
2024/01/01 04:52:28;;;;;;;22.13;7.60;;;6.40;99.90;;;;;;4878139;29;20123;-75
2024/01/01 04:54:57;;;;;;;18.27;6.20;;;6.40;99.90;;;;;;4862472;29;20041;-75
2024/01/01 04:57:31;;;;;;;22.63;8.20;;;6.40;99.90;;;;;;4888644;29;20432;-76
2024/01/01 05:00:00;;;;;;;24.00;8.00;;;6.40;99.90;;;;;;4896546;29;20040;-76
2024/01/01 05:02:39;;;;;;;16.55;6.60;;;6.40;99.90;;;;;;4912372;29;20037;-75
2024/01/01 05:05:08;;;;;;;26.58;8.43;;;6.40;99.90;;;;;;4880786;29;20047;-76
2024/01/01 05:07:53;;;;;;;25.48;8.13;;;6.40;99.90;;;;;;4875529;29;20044;-76
2024/01/01 05:10:31;;;;;;;26.00;8.65;;;6.40;99.90;;;;;;4890098;29;20059;-76
2024/01/01 05:12:59;;;;;;;23.98;8.32;;;6.40;99.90;;;;;;4894948;29;20048;-76
2024/01/01 05:15:25;;;;;;;19.77;8.10;;;6.40;99.90;;;;;;4895781;29;20051;-76
2024/01/01 05:17:59;;;;;;;25.25;9.32;;;6.50;99.90;;;;;;4873176;29;20041;-75
2024/01/01 05:20:25;;;;;;;22.58;7.70;;;6.40;99.90;;;;;;4868975;29;20060;-76
2024/01/01 05:22:53;;;;;;;29.42;10.50;;;6.50;99.90;;;;;;4874315;29;20495;-76
2024/01/01 05:25:29;;;;;;;23.45;10.05;;;6.40;99.90;;;;;;4880204;29;20523;-76
2024/01/01 05:28:15;;;;;;;29.58;10.40;;;6.50;99.90;;;;;;4878567;29;20047;-77
2024/01/01 05:31:04;;;;;;;35.17;11.30;;;6.50;99.90;;;;;;4879577;29;20496;-76
2024/01/01 05:33:49;;;;;;;30.02;10.35;;;6.50;99.90;;;;;;4879725;29;20048;-77
2024/01/01 05:36:39;;;;;;;28.55;10.50;;;6.50;99.90;;;;;;4895751;29;20460;-76
2024/01/01 05:39:14;;;;;;;30.17;10.07;;;6.50;99.90;;;;;;4910362;29;20474;-77
2024/01/01 05:42:09;;;;;;;26.98;10.52;;;6.50;99.90;;;;;;4895185;29;20392;-77
2024/01/01 05:44:38;;;;;;;28.42;10.93;;;6.50;99.90;;;;;;4892497;29;20033;-76
2024/01/01 05:47:16;;;;;;;25.23;10.07;;;6.50;99.90;;;;;;4869911;29;20068;-76
2024/01/01 05:49:42;;;;;;;26.05;10.00;;;6.50;99.90;;;;;;4895784;29;20076;-76
2024/01/01 05:52:09;;;;;;;27.13;10.05;;;6.50;99.90;;;;;;4895557;29;20566;-77
2024/01/01 05:57:31;;;;;;;31.40;11.20;;;6.60;99.90;;;;;;4907773;29;20049;-77
2024/01/01 06:00:12;;;;;;;26.48;11.60;;;6.50;99.90;;;;;;4877019;29;20037;-77
2024/01/01 06:02:43;;;;;;;27.65;12.07;;;6.60;99.90;;;;;;4893075;29;20171;-76
2024/01/01 06:05:16;;;;;;;19.88;8.40;;;6.50;99.90;;;;;;4877408;29;20045;-77
2024/01/01 06:07:57;;;;;;;28.40;10.95;;;6.60;99.90;;;;;;4907737;29;20335;-77
2024/01/01 06:10:31;;;;;;;21.90;9.95;;;6.60;99.90;;;;;;4885048;29;20056;-77
2024/01/01 06:13:06;;;;;;;24.50;11.00;;;6.40;99.90;;;;;;4895575;29;20068;-76
2024/01/01 06:15:52;;;;;;;21.90;10.27;;;6.60;99.90;;;;;;4882002;29;20143;-76
2024/01/01 06:18:27;;;;;;;26.25;11.23;;;6.60;99.90;;;;;;4896067;29;20056;-77
2024/01/01 06:20:53;;;;;;;23.85;10.80;;;6.50;99.90;;;;;;4878656;29;20040;-76
2024/01/01 06:23:21;;;;;;;24.27;12.25;;;6.50;99.90;;;;;;4887992;29;20533;-76
2024/01/01 06:25:50;;;;;;;25.50;11.43;;;6.50;99.90;;;;;;4878580;29;20041;-76
2024/01/01 06:28:25;;;;;;;23.95;11.57;;;6.50;99.90;;;;;;4879173;29;20081;-76
2024/01/01 06:30:54;;;;;;;28.38;12.55;;;6.50;99.90;;;;;;4876280;29;20555;-76
2024/01/01 06:33:22;;;;;;;26.27;11.23;;;6.50;99.90;;;;;;4891848;29;20105;-77
2024/01/01 06:35:48;;;;;;;21.85;10.48;;;6.50;99.90;;;;;;4860868;29;20037;-77
2024/01/01 06:38:17;;;;;;;28.92;13.02;;;6.50;99.90;;;;;;4879927;29;20099;-76
2024/01/01 06:40:50;;;;;;;26.85;11.73;;;6.50;99.90;;;;;;4891902;29;20052;-77
2024/01/01 06:43:24;;;;;;;30.42;12.38;;;6.50;99.90;;;;;;4861256;29;20579;-77
2024/01/01 06:45:52;;;;;;;21.98;11.55;;;6.60;99.90;;;;;;4863709;29;20037;-77
2024/01/01 06:48:18;;;;;;;29.17;12.20;;;6.50;99.90;;;;;;4895093;29;20558;-77
2024/01/01 06:50:44;;;;;;;20.60;10.93;;;6.50;99.90;;;;;;4897688;29;20044;-76
2024/01/01 06:53:10;;;;;;;27.55;13.85;;;6.50;99.90;;;;;;4904824;29;20400;-76
2024/01/01 06:55:41;;;;;;;31.27;13.77;;;6.50;99.90;;;;;;4883496;29;20408;-77
2024/01/01 06:58:12;;;;;;;27.60;11.90;;;6.50;99.90;;;;;;4882098;29;20052;-77
2024/01/01 07:00:43;;;;;;;23.10;9.40;;;6.50;99.90;;;;;;4913400;29;20504;-77
2024/01/01 07:03:16;;;;;;;15.50;6.72;;;6.50;99.90;;;;;;4898552;29;20460;-76
2024/01/01 07:05:45;;;;;;;15.30;6.68;;;6.50;99.90;;;;;;4899149;29;20045;-77
2024/01/01 07:08:11;;;;;;;16.52;6.85;;;6.40;99.90;;;;;;4899036;29;20096;-77
2024/01/01 07:10:37;;;;;;;17.10;8.77;;;6.50;99.90;;;;;;4878924;29;20412;-76
2024/01/01 07:13:14;;;;;;;14.98;9.52;;;6.40;99.90;;;;;;4895482;29;20040;-76
2024/01/01 07:15:48;;;;;;;23.38;11.73;;;6.40;99.90;;;;;;4891335;29;20534;-77
2024/01/01 07:18:37;;;;;;;21.92;12.05;;;6.50;99.90;;;;;;4878613;29;20101;-77
2024/01/01 07:24:04;;;;;;;29.48;14.25;;;6.50;99.90;;;;;;4898624;29;20245;-77
2024/01/01 07:26:44;;;;;;;23.75;11.75;;;6.50;99.90;;;;;;4896247;29;20041;-76
2024/01/01 07:29:25;;;;;;;37.90;15.07;;;6.50;99.90;;;;;;4895018;29;20041;-76
2024/01/01 07:32:15;;;;;;;25.15;11.82;;;6.50;99.90;;;;;;4909481;29;20080;-76
2024/01/01 07:34:44;;;;;;;29.20;13.00;;;6.50;99.90;;;;;;4897863;29;20123;-76
2024/01/01 07:37:25;;;;;;;29.17;12.43;;;6.50;99.90;;;;;;4881947;29;20313;-76
2024/01/01 07:39:51;;;;;;;21.42;10.20;;;6.50;99.90;;;;;;4895705;29;20036;-76
2024/01/01 07:42:20;;;;;;;24.58;10.63;;;6.60;99.90;;;;;;4873810;29;20056;-76
2024/01/01 07:44:46;;;;;;;25.42;12.75;;;6.60;99.90;;;;;;4895080;29;20080;-76
2024/01/01 07:47:16;;;;;;;23.63;13.05;;;6.50;99.90;;;;;;4879734;29;20099;-75
2024/01/01 07:49:45;;;;;;;24.02;11.82;;;6.50;99.90;;;;;;4863637;29;20420;-76
2024/01/01 07:52:14;;;;;;;24.95;12.77;;;6.50;99.90;;;;;;4883964;29;20044;-75
2024/01/01 07:54:40;;;;;;;22.77;11.75;;;6.50;99.90;;;;;;4895045;29;20048;-76
2024/01/01 07:57:06;;;;;;;23.70;11.52;;;6.50;99.90;;;;;;4881487;29;20470;-75
2024/01/01 07:59:43;;;;;;;27.13;11.60;;;6.50;99.90;;;;;;4897480;29;20037;-76
2024/01/01 08:02:11;;;;;;;22.75;11.02;;;6.60;99.90;;;;;;4879653;29;20514;-76
2024/01/01 08:04:47;;;;;;;24.23;11.63;;;6.60;99.90;;;;;;4912371;29;20079;-76
2024/01/01 08:07:15;;;;;;;23.42;11.30;;;6.50;99.90;;;;;;4881461;29;20048;-75
2024/01/01 08:09:43;;;;;;;23.00;11.18;;;6.50;99.90;;;;;;4897378;29;20044;-76
2024/01/01 08:15:32;;;;;;;20.85;11.05;;;6.50;99.90;;;;;;4912736;29;20049;-76
2024/01/01 08:17:58;;;;;;;20.70;10.38;;;6.60;99.90;;;;;;4891945;29;20045;-75
2024/01/01 08:20:24;;;;;;;23.60;10.43;;;6.50;99.90;;;;;;4901476;29;20039;-75
2024/01/01 08:22:55;;;;;;;24.05;10.65;;;6.50;99.90;;;;;;4886896;29;20037;-75
2024/01/01 08:25:21;;;;;;;20.15;9.23;;;6.40;99.90;;;;;;4884675;29;20072;-75
2024/01/01 08:27:52;;;;;;;21.25;9.63;;;6.50;99.90;;;;;;4889504;29;20076;-75
2024/01/01 08:30:20;;;;;;;18.17;7.63;;;6.40;99.90;;;;;;4889653;29;20088;-75
2024/01/01 08:32:51;;;;;;;20.10;8.50;;;6.30;99.90;;;;;;4912760;29;20113;-75
2024/01/01 08:35:28;;;;;;;21.92;8.13;;;6.30;99.90;;;;;;4881818;29;20044;-75
2024/01/01 08:38:03;;;;;;;19.08;7.95;;;6.30;99.90;;;;;;4887640;29;20128;-75
2024/01/01 08:40:31;;;;;;;22.38;9.18;;;6.40;99.90;;;;;;4873758;29;20054;-75
2024/01/01 08:43:04;;;;;;;18.40;8.98;;;6.40;99.90;;;;;;4869069;29;20045;-75
2024/01/01 08:45:30;;;;;;;20.50;9.70;;;6.40;99.90;;;;;;4909503;29;20514;-75
2024/01/01 08:47:55;;;;;;;20.13;9.45;;;6.50;99.90;;;;;;4906719;29;20417;-75
2024/01/01 08:50:21;;;;;;;23.85;10.18;;;6.60;99.90;;;;;;4880367;29;20051;-75
2024/01/01 08:52:57;;;;;;;18.30;9.93;;;6.60;99.90;;;;;;4896530;29;20048;-75
2024/01/01 08:55:33;;;;;;;22.58;10.50;;;6.80;99.90;;;;;;4896728;29;20239;-75
2024/01/01 08:58:06;;;;;;;20.23;9.80;;;6.90;99.90;;;;;;4896479;29;20045;-75
2024/01/01 09:00:40;;;;;;;20.83;9.43;;;6.90;99.90;;;;;;4907613;29;20124;-75
2024/01/01 09:03:06;;;;;;;23.77;9.55;;;7.00;99.90;;;;;;4877119;29;20095;-74
2024/01/01 09:05:32;;;;;;;22.08;8.38;;;6.90;99.90;;;;;;4896219;29;20119;-76
2024/01/01 09:07:57;;;;;;;21.48;9.30;;;6.80;99.90;;;;;;4866818;29;20049;-77
2024/01/01 09:10:23;;;;;;;19.20;8.15;;;6.70;99.90;;;;;;4861988;29;20112;-76
2024/01/01 09:12:49;;;;;;;18.55;8.88;;;6.70;99.90;;;;;;4876436;29;20107;-74
2024/01/01 09:15:18;;;;;;;21.35;9.25;;;6.70;99.90;;;;;;4862345;29;20040;-75
2024/01/01 09:17:44;;;;;;;18.42;8.07;;;6.70;99.90;;;;;;4876763;29;20128;-75
2024/01/01 09:20:12;;;;;;;19.13;7.97;;;6.70;99.90;;;;;;4868326;29;20119;-75
2024/01/01 09:22:38;;;;;;;22.00;9.88;;;6.70;99.90;;;;;;4875712;29;20159;-74
2024/01/01 09:25:06;;;;;;;19.20;7.38;;;6.80;99.90;;;;;;4876618;29;20116;-75
2024/01/01 09:27:32;;;;;;;17.65;6.72;;;6.90;99.90;;;;;;4905931;29;20504;-76
2024/01/01 09:30:05;;;;;;;18.73;7.30;;;6.90;99.90;;;;;;4891371;29;20045;-76
2024/01/01 09:32:31;;;;;;;17.75;6.72;;;6.90;99.90;;;;;;4860927;29;20053;-76
2024/01/01 09:34:59;;;;;;;21.35;8.93;;;6.90;99.90;;;;;;4860834;29;20131;-76
2024/01/01 09:37:28;;;;;;;23.55;8.50;;;6.90;99.90;;;;;;4861035;29;20485;-77
2024/01/01 09:39:54;;;;;;;23.40;9.20;;;6.90;99.90;;;;;;4866614;29;20056;-77
2024/01/01 09:42:19;;;;;;;20.80;8.48;;;6.90;99.90;;;;;;4890753;29;20452;-77
2024/01/01 09:44:53;;;;;;;21.83;8.13;;;6.90;99.90;;;;;;4901594;29;20704;-77
2024/01/01 09:47:19;;;;;;;20.48;8.38;;;6.90;99.90;;;;;;4873840;29;20040;-76
2024/01/01 09:49:47;;;;;;;15.20;5.50;;;6.80;99.90;;;;;;4894014;29;20495;-77
2024/01/01 09:52:14;;;;;;;14.35;5.15;;;6.80;99.90;;;;;;4874944;29;20116;-76
2024/01/01 09:54:43;;;;;;;15.48;5.32;;;6.80;99.90;;;;;;4883649;29;20052;-76
2024/01/01 09:57:11;;;;;;;14.85;5.97;;;6.80;99.90;;;;;;4878852;29;20041;-76
2024/01/01 09:59:39;;;;;;;16.33;6.50;;;6.80;99.90;;;;;;4878865;29;20051;-76
2024/01/01 10:02:12;;;;;;;17.25;6.47;;;6.80;99.90;;;;;;4872761;29;20056;-77
2024/01/01 10:04:43;;;;;;;20.92;7.50;;;6.80;99.90;;;;;;4874603;29;20408;-77
2024/01/01 10:07:12;;;;;;;29.27;11.15;;;6.80;99.90;;;;;;4882822;29;20048;-77
2024/01/01 10:09:50;;;;;;;23.50;9.80;;;6.90;99.90;;;;;;4887623;29;20055;-77
2024/01/01 10:12:20;;;;;;;21.30;8.00;;;6.90;99.90;;;;;;4873318;29;20045;-77
2024/01/01 10:14:47;;;;;;;17.73;7.32;;;6.90;99.90;;;;;;4869263;29;20407;-77
2024/01/01 10:17:20;;;;;;;16.20;5.00;;;6.90;99.90;;;;;;4875832;29;20401;-77
2024/01/01 10:19:54;;;;;;;14.80;4.30;;;6.90;99.90;;;;;;4894369;29;20512;-76
2024/01/01 10:22:20;;;;;;;11.48;4.38;;;6.80;99.90;;;;;;4890712;29;20060;-77
2024/01/01 10:24:47;;;;;;;12.32;3.47;;;6.80;99.90;;;;;;4872918;29;20036;-77
2024/01/01 10:27:20;;;;;;;16.67;4.13;;;6.80;99.90;;;;;;4882894;29;20179;-76
2024/01/01 10:29:47;;;;;;;11.80;3.63;;;6.80;99.90;;;;;;4884317;29;20388;-76
2024/01/01 10:32:18;;;;;;;14.88;4.78;;;6.80;99.90;;;;;;4883061;29;20052;-76
2024/01/01 10:34:50;;;;;;;17.58;4.55;;;6.80;99.90;;;;;;4897024;29;20090;-76
2024/01/01 10:37:19;;;;;;;14.20;4.28;;;7.00;99.90;;;;;;4882370;29;20068;-76
2024/01/01 10:40:04;;;;;;;14.10;3.83;;;6.90;99.90;;;;;;4866685;29;20053;-76
2024/01/01 10:42:37;;;;;;;17.88;3.92;;;6.90;99.90;;;;;;4866235;29;20047;-76
2024/01/01 10:45:08;;;;;;;;;;;6.90;99.90;;;;;;4874689;29;20049;-75
2024/01/01 10:47:35;;;;;;;14.30;3.42;;;6.80;99.90;;;;;;4887119;29;20117;-74
2024/01/01 10:50:22;;;;;;;13.60;4.00;;;6.80;99.90;;;;;;4890643;29;20512;-76
2024/01/01 10:53:21;;;;;;;16.33;5.22;;;6.80;99.90;;;;;;4882255;29;20052;-76
2024/01/01 10:56:12;;;;;;;13.77;4.10;;;6.80;99.90;;;;;;4889315;29;20060;-76
2024/01/01 10:59:26;;;;;;;14.73;4.82;;;6.80;99.90;;;;;;4898145;29;20044;-76
2024/01/01 11:02:09;;;;;;;11.68;3.47;;;6.80;99.90;;;;;;4896368;29;20044;-76
2024/01/01 11:04:37;;;;;;;16.00;4.18;;;6.80;99.90;;;;;;4888231;29;20033;-76
2024/01/01 11:07:04;;;;;;;14.50;4.22;;;6.80;99.90;;;;;;4909699;29;20037;-77
2024/01/01 11:09:34;;;;;;;13.38;3.65;;;6.80;99.90;;;;;;4910395;29;20036;-75
2024/01/01 11:12:05;;;;;;;14.52;4.60;;;6.80;99.90;;;;;;4896890;29;20083;-77
2024/01/01 11:14:41;;;;;;;13.82;4.75;;;6.90;99.90;;;;;;4896523;29;20052;-75
2024/01/01 11:17:11;;;;;;;18.27;5.18;;;7.00;99.90;;;;;;4911966;29;20065;-75
2024/01/01 11:19:48;;;;;;;13.40;4.70;;;7.10;99.90;;;;;;4906591;29;20037;-75
2024/01/01 11:22:20;;;;;;;19.70;5.55;;;7.20;99.90;;;;;;4878850;29;20052;-77
2024/01/01 11:24:50;;;;;;;20.45;6.60;;;7.20;99.90;;;;;;4878334;29;20043;-76
2024/01/01 11:27:34;;;;;;;22.92;6.35;;;7.20;99.90;;;;;;4880995;29;20047;-76
2024/01/01 11:30:14;;;;;;;19.38;5.60;;;7.40;99.90;;;;;;4853723;29;20116;-77
2024/01/01 11:32:43;;;;;;;18.00;5.30;;;7.40;99.90;;;;;;4887251;29;20040;-77
2024/01/01 11:35:15;;;;;;;19.58;5.43;;;7.50;99.90;;;;;;4894979;29;20547;-76
2024/01/01 11:37:51;;;;;;;14.95;4.38;;;7.60;99.90;;;;;;4873946;29;20037;-77
2024/01/01 11:40:17;;;;;;;13.23;3.80;;;7.70;99.90;;;;;;4897186;29;20045;-74
2024/01/01 11:42:42;;;;;;;14.65;4.13;;;7.70;99.90;;;;;;4896890;29;20385;-76
2024/01/01 11:45:11;;;;;;;14.23;4.00;;;7.70;99.90;;;;;;4880112;29;20152;-77
2024/01/01 11:48:03;;;;;;;15.27;3.88;;;7.70;99.90;;;;;;4894762;29;20044;-77
2024/01/01 11:50:30;;;;;;;16.23;3.60;;;7.70;99.90;;;;;;4871795;29;20167;-76
2024/01/01 11:53:00;;;;;;;11.73;3.58;;;7.70;99.90;;;;;;4896699;29;20049;-75
2024/01/01 11:55:31;;;;;;;13.85;4.35;;;7.80;99.90;;;;;;4882649;29;20040;-75
2024/01/01 11:58:00;;;;;;;14.95;3.83;;;7.80;99.90;;;;;;4897689;29;20108;-75
2024/01/01 12:00:29;;;;;;;11.65;3.58;;;7.80;99.90;;;;;;4897272;29;20033;-75
2024/01/01 12:03:00;;;;;;;13.68;3.80;;;7.90;99.90;;;;;;4890655;29;20047;-75
2024/01/01 12:05:34;;;;;;;15.55;3.65;;;7.90;99.90;;;;;;4897011;29;20048;-77
2024/01/01 12:08:14;;;;;;;13.30;3.60;;;7.80;99.90;;;;;;4894613;29;20144;-76
2024/01/01 12:13:36;;;;;;;14.55;4.20;;;7.70;99.90;;;;;;4896107;29;20052;-75
2024/01/01 12:16:18;;;;;;;13.48;4.45;;;7.60;99.90;;;;;;4880690;29;20131;-76
2024/01/01 12:18:43;;;;;;;18.30;5.00;;;7.50;99.90;;;;;;4897550;29;20044;-76
2024/01/01 12:21:17;;;;;;;15.95;4.15;;;7.50;99.90;;;;;;4874087;29;20033;-76
2024/01/01 12:23:49;;;;;;;14.80;4.50;;;7.50;99.90;;;;;;4896842;29;20053;-76
2024/01/01 12:26:26;;;;;;;17.15;5.18;;;7.60;99.90;;;;;;4881596;29;20044;-75
2024/01/01 12:29:15;;;;;;;18.40;5.22;;;7.70;99.90;;;;;;4875540;29;20060;-75
2024/01/01 12:31:46;;;;;;;19.02;4.90;;;7.60;99.90;;;;;;4875869;29;20193;-76
2024/01/01 12:34:24;;;;;;;14.48;4.80;;;7.70;99.90;;;;;;4906414;29;20496;-76
2024/01/01 12:36:50;;;;;;;15.68;4.22;;;7.60;99.90;;;;;;4881079;29;20063;-77
2024/01/01 12:39:50;;;;;;;13.57;4.90;;;7.60;99.90;;;;;;4881137;29;20052;-79
2024/01/01 12:42:20;;;;;;;19.02;5.80;;;7.60;99.90;;;;;;4861571;29;20085;-76
2024/01/01 12:44:49;;;;;;;18.33;6.28;;;7.50;99.90;;;;;;4874142;29;20043;-78
2024/01/01 12:47:22;;;;;;;14.52;6.55;;;7.50;99.90;;;;;;4892588;29;20060;-77
2024/01/01 12:49:53;;;;;;;17.52;5.78;;;7.60;99.90;;;;;;4879112;29;20500;-76
2024/01/01 12:52:30;;;;;;;15.02;5.00;;;7.70;99.90;;;;;;4915784;29;20065;-76
2024/01/01 12:55:10;;;;;;;15.20;4.32;;;7.80;99.90;;;;;;4892112;29;20044;-76
2024/01/01 12:57:43;;;;;;;14.63;4.10;;;8.00;99.90;;;;;;4889964;29;20068;-77
2024/01/01 13:00:12;;;;;;;13.75;3.95;;;8.20;99.90;;;;;;4912497;29;20036;-77
2024/01/01 13:02:40;;;;;;;14.77;3.65;;;8.20;99.90;;;;;;4878408;29;20101;-76
2024/01/01 13:05:11;;;;;;;12.90;3.28;;;8.30;99.90;;;;;;4893490;29;20045;-78
2024/01/01 13:07:41;;;;;;;15.68;3.45;;;8.30;99.90;;;;;;4876548;29;20131;-79
2024/01/01 13:10:21;;;;;;;14.40;3.58;;;8.30;99.90;;;;;;4892744;29;20048;-77